createdAt,value
2019-04-16T00:01:02.303Z,74.23
2019-04-16T00:03:28.800Z,78.83
2019-04-16T00:06:02.885Z,86.23
2019-04-16T00:08:37.004Z,89.70
2019-04-16T00:11:05.247Z,80.80
2019-04-16T00:13:33.583Z,84.57
2019-04-16T00:16:01.818Z,111.77
2019-04-16T00:18:28.307Z,160.93
2019-04-16T00:21:13.495Z,108.73
2019-04-16T00:23:53.522Z,133.47
2019-04-16T00:26:19.984Z,128.43
2019-04-16T00:28:46.403Z,140.20
2019-04-16T00:31:12.873Z,151.27
2019-04-16T00:33:42.629Z,141.43
2019-04-16T00:36:07.549Z,137.93
2019-04-16T00:38:40.756Z,162.03
2019-04-16T00:41:02.370Z,146.83
2019-04-16T00:43:28.772Z,157.03
2019-04-16T00:45:55.162Z,155.77
2019-04-16T00:48:21.517Z,159.53
2019-04-16T00:50:47.948Z,161.03
2019-04-16T00:53:14.311Z,151.37
2019-04-16T00:55:42.363Z,147.03
2019-04-16T00:58:08.938Z,168.30
2019-04-16T01:00:35.322Z,159.33
2019-04-16T01:03:01.707Z,143.93
2019-04-16T01:05:28.054Z,151.53
2019-04-16T01:07:54.433Z,147.10
2019-04-16T01:10:20.844Z,146.80
2019-04-16T01:12:47.248Z,149.70
2019-04-16T01:15:13.591Z,140.97
2019-04-16T01:17:40.086Z,148.43
2019-04-16T01:20:06.536Z,137.20
2019-04-16T01:22:32.969Z,149.77
2019-04-16T01:24:59.309Z,134.57
2019-04-16T01:27:30.376Z,129.73
2019-04-16T01:29:56.739Z,126.03
2019-04-16T01:32:30.895Z,110.33
2019-04-16T01:34:59.182Z,101.37
2019-04-16T01:37:33.676Z,95.83
2019-04-16T01:40:02.004Z,79.07
2019-04-16T01:42:28.361Z,86.37
2019-04-16T01:44:59.330Z,81.33
2019-04-16T01:47:22.899Z,86.77
2019-04-16T01:49:49.284Z,81.87
2019-04-16T01:52:18.737Z,75.80
2019-04-16T01:54:43.865Z,78.73
2019-04-16T01:57:10.231Z,89.03
2019-04-16T01:59:36.631Z,75.63
2019-04-16T02:02:03.256Z,62.47
2019-04-16T02:04:30.842Z,60.40
2019-04-16T02:06:57.870Z,60.60
2019-04-16T02:09:24.247Z,60.13
2019-04-16T02:11:50.648Z,70.57
2019-04-16T02:14:19.344Z,77.03
2019-04-16T02:16:45.253Z,65.13
2019-04-16T02:19:11.620Z,64.70
2019-04-16T02:21:38.944Z,64.07
2019-04-16T02:24:06.208Z,72.83
2019-04-16T02:26:32.581Z,60.30
2019-04-16T02:28:59.535Z,69.03
2019-04-16T02:31:25.966Z,67.60
2019-04-16T02:33:52.389Z,57.20
2019-04-16T02:36:19.765Z,65.03
2019-04-16T02:38:52.504Z,75.07
2019-04-16T02:41:15.480Z,61.57
2019-04-16T02:43:41.923Z,62.70
2019-04-16T02:46:08.440Z,61.97
2019-04-16T02:48:34.895Z,80.30
2019-04-16T02:51:07.352Z,68.60
2019-04-16T02:53:36.323Z,69.60
2019-04-16T02:56:17.206Z,59.20
2019-04-16T02:58:43.888Z,68.27
2019-04-16T03:01:12.125Z,60.30
2019-04-16T03:03:43.102Z,53.03
2019-04-16T03:06:09.499Z,60.23
2019-04-16T03:08:36.216Z,59.87
2019-04-16T03:11:03.273Z,55.80
2019-04-16T03:13:30.745Z,67.10
2019-04-16T03:15:59.283Z,53.23
2019-04-16T03:18:33.795Z,57.13
2019-04-16T03:21:00.171Z,54.27
2019-04-16T03:23:26.539Z,53.83
2019-04-16T03:25:52.946Z,49.13
2019-04-16T03:28:19.362Z,57.47
2019-04-16T03:30:45.701Z,55.73
2019-04-16T03:33:14.286Z,56.10
2019-04-16T03:35:40.245Z,57.27
2019-04-16T03:38:06.648Z,50.73
2019-04-16T03:40:33.035Z,65.63
2019-04-16T03:43:02.474Z,47.83
2019-04-16T03:45:27.557Z,57.97
2019-04-16T03:47:53.980Z,45.20
2019-04-16T03:50:20.388Z,53.37
2019-04-16T03:52:46.779Z,56.07
2019-04-16T03:55:13.149Z,46.50
2019-04-16T03:57:39.517Z,43.03
2019-04-16T04:00:11.200Z,42.20
2019-04-16T04:02:36.157Z,53.87
2019-04-16T04:05:06.473Z,45.47
2019-04-16T04:07:32.246Z,43.83
2019-04-16T04:09:58.885Z,46.87
2019-04-16T04:12:27.755Z,44.17
2019-04-16T04:14:54.295Z,50.97
2019-04-16T04:17:21.555Z,48.40
2019-04-16T04:19:47.923Z,48.03
2019-04-16T04:22:14.301Z,46.17
2019-04-16T04:24:40.671Z,58.80
2019-04-16T04:27:07.041Z,49.90
2019-04-16T04:29:33.426Z,45.70
2019-04-16T04:32:03.040Z,44.50
2019-04-16T04:34:27.993Z,51.27
2019-04-16T04:36:58.876Z,41.87
2019-04-16T04:39:22.531Z,43.80
2019-04-16T04:41:52.604Z,45.70
2019-04-16T04:44:18.280Z,43.83
2019-04-16T04:46:46.102Z,45.10
2019-04-16T04:49:12.794Z,39.17
2019-04-16T04:51:42.634Z,47.30
2019-04-16T04:54:07.345Z,52.10
2019-04-16T04:56:33.753Z,40.93
2019-04-16T04:59:02.430Z,41.63
2019-04-16T05:01:28.274Z,46.70
2019-04-16T05:04:13.313Z,50.30
2019-04-16T05:06:44.114Z,47.00
2019-04-16T05:09:10.473Z,42.03
2019-04-16T05:11:36.881Z,42.50
2019-04-16T05:14:03.278Z,40.93
2019-04-16T05:16:31.491Z,38.90
2019-04-16T05:18:57.980Z,49.20
2019-04-16T05:21:24.422Z,47.53
2019-04-16T05:23:50.857Z,49.00
2019-04-16T05:26:17.255Z,41.10
2019-04-16T05:28:45.528Z,58.57
2019-04-16T05:31:11.813Z,61.67
2019-04-16T05:33:38.249Z,49.43
2019-04-16T05:36:05.650Z,52.53
2019-04-16T05:38:32.041Z,57.03
2019-04-16T05:41:12.239Z,51.03
2019-04-16T05:43:29.991Z,59.43
2019-04-16T05:45:54.938Z,51.50
2019-04-16T05:48:22.729Z,57.57
2019-04-16T05:50:50.164Z,46.83
2019-04-16T05:53:16.548Z,70.73
2019-04-16T05:55:49.384Z,55.67
2019-04-16T05:58:13.071Z,50.00
2019-04-16T06:00:44.422Z,43.83
2019-04-16T06:03:10.755Z,102.80
2019-04-16T06:05:37.235Z,88.50
2019-04-16T06:08:10.435Z,26.77
2019-04-16T06:10:36.982Z,27.70
2019-04-16T06:13:12.631Z,25.07
2019-04-16T06:15:47.051Z,30.00
2019-04-16T06:18:37.139Z,27.17
2019-04-16T06:21:11.598Z,27.33
2019-04-16T06:23:39.860Z,46.33
2019-04-16T06:26:14.770Z,28.47
2019-04-16T06:28:59.992Z,21.83
2019-04-16T06:31:30.874Z,25.47
2019-04-16T06:34:01.704Z,29.93
2019-04-16T06:36:30.016Z,23.73
2019-04-16T06:39:15.067Z,21.53
2019-04-16T06:41:48.967Z,19.60
2019-04-16T06:44:17.226Z,15.57
2019-04-16T06:46:45.497Z,26.10
2019-04-16T06:49:14.357Z,21.70
2019-04-16T06:51:44.718Z,19.87
2019-04-16T06:54:25.849Z,20.10
2019-04-16T06:56:58.291Z,21.03
2019-04-16T06:59:35.479Z,20.33
2019-04-16T07:02:12.741Z,22.57
2019-04-16T07:04:46.902Z,18.97
2019-04-16T07:07:22.240Z,18.63
2019-04-16T07:09:51.047Z,28.30
2019-04-16T07:12:19.396Z,26.57
2019-04-16T07:14:48.300Z,26.77
2019-04-16T07:17:17.866Z,20.00
2019-04-16T07:19:43.492Z,25.00
2019-04-16T07:22:09.907Z,22.80
2019-04-16T07:24:37.756Z,18.33
2019-04-16T07:27:04.530Z,23.17
2019-04-16T07:29:38.976Z,30.47
2019-04-16T07:32:23.968Z,29.23
2019-04-16T07:34:58.226Z,27.63
2019-04-16T07:37:35.359Z,55.13
2019-04-16T07:40:15.918Z,22.73
2019-04-16T07:42:57.935Z,20.17
2019-04-16T07:45:40.440Z,21.10
2019-04-16T07:48:14.286Z,27.73
2019-04-16T07:50:42.596Z,20.23
2019-04-16T07:53:13.712Z,15.90
2019-04-16T07:55:43.717Z,18.45
2019-04-16T07:58:10.112Z,22.82
2019-04-16T08:00:40.285Z,18.90
2019-04-16T08:03:05.131Z,20.85
2019-04-16T08:05:31.658Z,15.55
2019-04-16T08:07:58.036Z,32.08
2019-04-16T08:10:24.452Z,16.82
2019-04-16T08:12:52.725Z,19.45
2019-04-16T08:15:19.168Z,19.48
2019-04-16T08:17:45.512Z,274.10
2019-04-16T08:20:12.052Z,19.90
2019-04-16T08:22:40.119Z,20.05
2019-04-16T08:25:06.827Z,14.63
2019-04-16T08:27:33.247Z,12.05
2019-04-16T08:30:03.401Z,15.13
2019-04-16T08:32:27.979Z,49.00
2019-04-16T08:34:54.371Z,12.37
2019-04-16T08:37:20.870Z,14.65
2019-04-16T08:39:47.427Z,12.82
2019-04-16T08:42:13.857Z,9.93
2019-04-16T08:44:40.283Z,15.55
2019-04-16T08:47:11.545Z,10.18
2019-04-16T08:49:34.881Z,5.78
2019-04-16T08:52:01.356Z,10.38
2019-04-16T08:54:27.729Z,8.30
2019-04-16T08:56:54.133Z,8.53
2019-04-16T08:59:20.515Z,9.15
2019-04-16T09:01:46.969Z,36.03
2019-04-16T09:04:13.345Z,10.00
2019-04-16T09:06:42.725Z,27.77
2019-04-16T09:09:26.156Z,12.33
2019-04-16T09:11:54.469Z,8.90
2019-04-16T09:14:25.420Z,9.10
2019-04-16T09:17:09.590Z,11.78
2019-04-16T09:19:36.244Z,15.80
2019-04-16T09:22:02.724Z,15.45
2019-04-16T09:24:30.985Z,12.03
2019-04-16T09:27:08.233Z,11.75
2019-04-16T09:29:53.121Z,14.13
2019-04-16T09:32:28.464Z,14.50
2019-04-16T09:35:18.410Z,15.83
2019-04-16T09:37:43.653Z,16.35
2019-04-16T09:40:29.911Z,12.80
2019-04-16T09:42:57.063Z,10.65
2019-04-16T09:45:25.208Z,14.43
2019-04-16T09:47:51.826Z,10.20
2019-04-16T09:50:18.393Z,13.08
2019-04-16T09:52:44.757Z,8.08
2019-04-16T09:55:11.193Z,14.87
2019-04-16T09:57:37.628Z,15.38
2019-04-16T10:00:08.421Z,13.03
2019-04-16T10:02:36.933Z,8.03
2019-04-16T10:05:04.493Z,11.15
2019-04-16T10:07:30.924Z,17.95
2019-04-16T10:09:57.351Z,13.68
2019-04-16T10:12:23.802Z,13.35
2019-04-16T10:14:50.137Z,15.32
2019-04-16T10:17:16.515Z,10.43
2019-04-16T10:19:43.402Z,8.80
2019-04-16T10:22:10.421Z,11.38
2019-04-16T10:24:55.523Z,12.00
2019-04-16T10:27:23.804Z,9.98
2019-04-16T10:29:50.202Z,9.58
2019-04-16T10:32:18.174Z,11.80
2019-04-16T10:34:44.798Z,10.95
2019-04-16T10:37:11.322Z,14.38
2019-04-16T10:39:51.693Z,11.50
2019-04-16T10:42:37.861Z,9.73
2019-04-16T10:45:25.166Z,12.95
2019-04-16T10:47:53.408Z,19.12
2019-04-16T10:50:39.643Z,15.45
2019-04-16T10:53:13.914Z,13.83
2019-04-16T10:55:42.289Z,12.28
2019-04-16T10:58:27.189Z,9.58
2019-04-16T11:00:55.561Z,11.68
2019-04-16T11:03:28.641Z,10.35
2019-04-16T11:06:00.016Z,12.98
2019-04-16T11:08:26.572Z,8.55
2019-04-16T11:10:53.021Z,13.60
2019-04-16T11:13:27.342Z,10.68
2019-04-16T11:15:53.984Z,13.98
2019-04-16T11:18:20.385Z,14.85
2019-04-16T11:20:46.775Z,7.15
2019-04-16T11:23:13.176Z,9.20
2019-04-16T11:25:39.586Z,7.33
2019-04-16T11:28:06.010Z,8.15
2019-04-16T11:30:34.287Z,16.00
2019-04-16T11:33:00.861Z,25.20
2019-04-16T11:35:27.226Z,9.83
2019-04-16T11:37:53.651Z,14.07
2019-04-16T11:40:20.109Z,10.80
2019-04-16T11:42:46.529Z,9.18
2019-04-16T11:45:14.137Z,10.32
2019-04-16T11:47:40.679Z,17.07
2019-04-16T11:50:07.167Z,12.15
2019-04-16T11:52:33.606Z,10.63
2019-04-16T11:55:00.867Z,21.15
2019-04-16T11:57:29.422Z,18.42
2019-04-16T12:00:06.458Z,10.70
2019-04-16T12:02:25.676Z,12.45
2019-04-16T12:05:06.096Z,13.53
2019-04-16T12:07:35.464Z,10.65
2019-04-16T12:10:12.622Z,9.38
2019-04-16T12:12:52.994Z,39.65
2019-04-16T12:15:26.792Z,6.60
2019-04-16T12:17:55.128Z,8.10
2019-04-16T12:20:40.225Z,9.23
2019-04-16T12:23:14.709Z,10.90
2019-04-16T12:25:45.462Z,7.33
2019-04-16T12:28:25.771Z,46.83
2019-04-16T12:30:54.103Z,9.70
2019-04-16T12:33:24.864Z,11.88
2019-04-16T12:35:59.038Z,10.95
2019-04-16T12:38:27.430Z,23.42
2019-04-16T12:41:06.460Z,8.00
2019-04-16T12:43:40.961Z,7.78
2019-04-16T12:46:18.457Z,7.47
2019-04-16T12:48:46.867Z,14.23
2019-04-16T12:51:24.398Z,12.73
2019-04-16T12:53:55.690Z,11.28
2019-04-16T12:56:41.366Z,5.42
2019-04-16T12:59:09.832Z,11.22
2019-04-16T13:01:40.862Z,6.67
2019-04-16T13:04:15.293Z,17.95
2019-04-16T13:06:46.268Z,7.05
2019-04-16T13:09:23.838Z,5.15
2019-04-16T13:11:55.164Z,5.55
2019-04-16T13:14:43.089Z,16.20
2019-04-16T13:17:15.170Z,8.45
2019-04-16T13:19:45.229Z,10.60
2019-04-16T13:22:16.565Z,5.03
2019-04-16T13:24:45.468Z,9.53
2019-04-16T13:27:13.919Z,23.22
2019-04-16T13:29:40.408Z,14.65
2019-04-16T13:32:07.054Z,10.18
2019-04-16T13:34:33.575Z,13.03
2019-04-16T13:37:00.988Z,8.68
2019-04-16T13:39:33.475Z,9.90
2019-04-16T13:42:00.453Z,77.80
2019-04-16T13:44:29.011Z,10.40
2019-04-16T13:46:55.618Z,9.37
2019-04-16T13:49:36.761Z,25.17
2019-04-16T13:52:03.416Z,23.18
2019-04-16T13:54:48.655Z,14.28
2019-04-16T13:57:19.695Z,11.77
2019-04-16T13:59:55.427Z,17.87
2019-04-16T14:02:40.959Z,10.53
2019-04-16T14:05:10.317Z,10.20
2019-04-16T14:07:36.266Z,16.10
2019-04-16T14:10:05.591Z,7.53
2019-04-16T14:12:41.937Z,10.47
2019-04-16T14:15:00.354Z,8.53
2019-04-16T14:17:28.750Z,6.27
2019-04-16T14:19:55.241Z,7.17
2019-04-16T14:22:22.503Z,10.57
2019-04-16T14:24:49.119Z,11.03
2019-04-16T14:27:15.603Z,8.90
2019-04-16T14:29:42.037Z,6.43
2019-04-16T14:32:08.602Z,30.43
2019-04-16T14:34:39.690Z,7.60
2019-04-16T14:37:06.179Z,12.50
2019-04-16T14:39:37.324Z,45.73
2019-04-16T14:42:03.848Z,7.57
2019-04-16T14:44:34.705Z,4.47
2019-04-16T14:47:02.061Z,20.23
2019-04-16T14:49:28.649Z,8.23
2019-04-16T14:51:58.148Z,21.07
2019-04-16T14:54:25.268Z,17.57
2019-04-16T14:56:53.691Z,10.77
2019-04-16T14:59:33.965Z,10.63
2019-04-16T15:01:57.748Z,8.83
2019-04-16T15:04:26.131Z,6.07
2019-04-16T15:07:06.779Z,10.30
2019-04-16T15:09:48.465Z,6.80
2019-04-16T15:12:25.802Z,8.23
2019-04-16T15:15:12.378Z,12.07
2019-04-16T15:17:47.036Z,13.20
2019-04-16T15:20:24.796Z,8.23
2019-04-16T15:23:05.831Z,30.30
2019-04-16T15:25:50.946Z,15.37
2019-04-16T15:28:25.409Z,11.23
2019-04-16T15:31:00.889Z,44.43
2019-04-16T15:33:35.591Z,6.33
2019-04-16T15:36:02.888Z,18.40
2019-04-16T15:38:33.990Z,19.70
2019-04-16T15:41:05.220Z,99.07
2019-04-16T15:43:33.634Z,5.87
2019-04-16T15:46:25.044Z,26.73
2019-04-16T15:48:56.744Z,12.53
2019-04-16T15:51:30.986Z,10.50
2019-04-16T15:54:08.544Z,8.30
2019-04-16T15:56:37.044Z,9.23
2019-04-16T15:59:05.578Z,4.80
2019-04-16T16:01:45.719Z,48.57
2019-04-16T16:04:14.109Z,9.33
2019-04-16T16:06:42.510Z,8.43
2019-04-16T16:09:10.978Z,9.20
2019-04-16T16:11:44.549Z,12.93
2019-04-16T16:14:11.233Z,9.47
2019-04-16T16:16:42.080Z,43.37
2019-04-16T16:19:11.211Z,8.30
2019-04-16T16:21:34.257Z,8.47
2019-04-16T16:24:06.662Z,40.53
2019-04-16T16:26:29.030Z,10.47
2019-04-16T16:28:55.569Z,7.47
2019-04-16T16:31:22.045Z,14.03
2019-04-16T16:33:48.513Z,11.53
2019-04-16T16:36:16.243Z,7.53
2019-04-16T16:38:48.266Z,7.63
2019-04-16T16:41:11.225Z,8.60
2019-04-16T16:43:37.814Z,36.23
2019-04-16T16:46:06.126Z,11.60
2019-04-16T16:48:32.643Z,8.40
2019-04-16T16:50:59.364Z,12.07
2019-04-16T16:53:45.955Z,4.77
2019-04-16T16:56:17.391Z,21.40
2019-04-16T16:58:45.734Z,12.83
2019-04-16T17:01:34.745Z,72.90
2019-04-16T17:04:01.418Z,73.60
2019-04-16T17:06:29.877Z,33.93
2019-04-16T17:08:56.334Z,54.13
2019-04-16T17:11:23.167Z,86.53
2019-04-16T17:13:49.616Z,486.67
2019-04-16T17:16:17.188Z,323.50
2019-04-16T17:18:45.492Z,384.93
2019-04-16T17:21:12.113Z,39.97
2019-04-16T17:23:38.773Z,62.47
2019-04-16T17:26:05.364Z,43.87
2019-04-16T17:28:32.190Z,44.20
2019-04-16T17:30:58.967Z,48.90
2019-04-16T17:33:25.656Z,90.27
2019-04-16T17:35:52.151Z,55.77
2019-04-16T17:38:18.935Z,66.80
2019-04-16T17:40:51.136Z,19.00
2019-04-16T17:43:20.966Z,211.53
2019-04-16T17:45:49.373Z,51.20
2019-04-16T17:48:33.504Z,64.73
2019-04-16T17:51:01.979Z,67.17
2019-04-16T17:53:37.117Z,145.47
2019-04-16T17:56:22.341Z,34.30
2019-04-16T17:58:56.981Z,130.37
2019-04-16T18:01:43.448Z,43.27
2019-04-16T18:04:29.734Z,112.07
2019-04-16T18:07:25.870Z,107.90
2019-04-16T18:10:11.344Z,64.63
2019-04-16T18:12:45.985Z,90.00
2019-04-16T18:15:14.606Z,102.47
2019-04-16T18:17:47.191Z,297.70
2019-04-16T18:20:16.249Z,90.17
2019-04-16T18:22:57.024Z,86.67
2019-04-16T18:25:34.851Z,83.77
2019-04-16T18:28:05.734Z,211.17
2019-04-16T18:30:48.897Z,172.53
2019-04-16T18:33:32.408Z,105.53
2019-04-16T18:36:02.489Z,230.90
2019-04-16T18:38:37.127Z,164.70
2019-04-16T18:41:22.421Z,213.70
2019-04-16T18:44:05.606Z,163.63
2019-04-16T18:46:37.085Z,102.07
2019-04-16T18:49:17.307Z,55.80
2019-04-16T18:51:42.734Z,21.60
2019-04-16T18:54:09.172Z,34.63
2019-04-16T18:56:35.657Z,66.87
2019-04-16T18:59:02.277Z,37.43
2019-04-16T19:01:32.551Z,26.80
2019-04-16T19:03:59.394Z,77.70
2019-04-16T19:06:25.978Z,62.17
2019-04-16T19:08:52.718Z,43.60
2019-04-16T19:11:20.406Z,110.93
2019-04-16T19:13:47.276Z,105.77
2019-04-16T19:16:13.714Z,111.77
2019-04-16T19:18:40.235Z,92.67
2019-04-16T19:21:06.791Z,111.97
2019-04-16T19:23:33.282Z,345.30
2019-04-16T19:25:59.818Z,635.57
2019-04-16T19:28:26.259Z,522.90
2019-04-16T19:30:52.802Z,210.73
2019-04-16T19:33:19.296Z,122.70
2019-04-16T19:35:48.703Z,96.67
2019-04-16T19:38:14.169Z,180.83
2019-04-16T19:40:40.684Z,1351.67
2019-04-16T19:43:07.182Z,652.60
2019-04-16T19:45:33.688Z,155.10
2019-04-16T19:48:01.710Z,135.00
2019-04-16T19:50:35.986Z,105.03
2019-04-16T19:52:56.943Z,81.00
2019-04-16T19:55:23.620Z,45.83
2019-04-16T19:57:51.081Z,94.90
2019-04-16T20:00:22.014Z,51.17
2019-04-16T20:02:46.197Z,90.90
2019-04-16T20:05:15.367Z,110.50
2019-04-16T20:07:41.380Z,432.17
2019-04-16T20:10:08.129Z,312.53
2019-04-16T20:12:34.573Z,132.87
2019-04-16T20:15:01.194Z,175.83
2019-04-16T20:17:27.679Z,101.37
2019-04-16T20:19:57.827Z,101.63
2019-04-16T20:22:26.021Z,91.63
2019-04-16T20:24:53.026Z,63.77
2019-04-16T20:27:20.074Z,30.23
2019-04-16T20:29:46.878Z,23.53
2019-04-16T20:32:13.337Z,81.37
2019-04-16T20:34:42.376Z,65.27
2019-04-16T20:37:08.131Z,52.87
2019-04-16T20:39:35.107Z,30.97
2019-04-16T20:42:03.685Z,99.83
2019-04-16T20:44:30.389Z,51.10
2019-04-16T20:47:02.351Z,26.50
2019-04-16T20:49:26.971Z,34.40
2019-04-16T20:51:56.625Z,18.90
2019-04-16T20:54:23.017Z,18.07
2019-04-16T20:56:50.019Z,21.37
2019-04-16T20:59:17.930Z,21.00
2019-04-16T21:01:44.611Z,34.70
2019-04-16T21:04:11.391Z,18.23
2019-04-16T21:06:40.747Z,24.90
2019-04-16T21:09:06.736Z,23.30
2019-04-16T21:11:40.248Z,31.13
2019-04-16T21:14:03.481Z,30.63
2019-04-16T21:16:33.434Z,30.83
2019-04-16T21:18:58.463Z,22.93
2019-04-16T21:21:24.917Z,21.03
2019-04-16T21:23:51.428Z,21.07
2019-04-16T21:26:20.011Z,30.43
2019-04-16T21:28:48.362Z,23.87
2019-04-16T21:31:19.480Z,24.73
2019-04-16T21:33:49.269Z,34.27
2019-04-16T21:36:36.977Z,31.03
2019-04-16T21:39:23.841Z,50.93
2019-04-16T21:41:50.338Z,45.60
2019-04-16T21:44:16.906Z,30.50
2019-04-16T21:46:43.561Z,38.23
2019-04-16T21:49:11.148Z,33.33
2019-04-16T21:51:39.451Z,35.93
2019-04-16T21:54:05.911Z,31.73
2019-04-16T21:56:32.419Z,30.00
2019-04-16T21:59:00.045Z,31.50
2019-04-16T22:01:28.515Z,36.73
2019-04-16T22:04:00.245Z,24.07
2019-04-16T22:06:26.877Z,22.67
2019-04-16T22:08:53.320Z,28.43
2019-04-16T22:11:19.699Z,29.77
2019-04-16T22:13:50.420Z,34.13
2019-04-16T22:16:14.918Z,25.10
2019-04-16T22:18:42.330Z,29.47
2019-04-16T22:21:10.994Z,25.87
2019-04-16T22:23:37.226Z,24.67
2019-04-16T22:26:03.983Z,25.57
2019-04-16T22:28:30.443Z,32.77
2019-04-16T22:30:56.885Z,32.73
2019-04-16T22:33:23.419Z,39.83
2019-04-16T22:35:49.869Z,35.20
2019-04-16T22:38:16.392Z,31.90
2019-04-16T22:40:51.676Z,35.83
2019-04-16T22:43:26.742Z,28.67
2019-04-16T22:45:55.255Z,24.87
2019-04-16T22:48:21.893Z,26.53
2019-04-16T22:50:48.578Z,25.83
2019-04-16T22:53:17.191Z,29.37
2019-04-16T22:55:43.681Z,30.63
2019-04-16T22:58:12.283Z,38.83
2019-04-16T23:00:44.121Z,31.07
2019-04-16T23:03:10.425Z,31.33
2019-04-16T23:05:37.081Z,28.43
2019-04-16T23:08:03.654Z,29.20
2019-04-16T23:10:30.476Z,26.83
2019-04-16T23:13:00.308Z,31.17
2019-04-16T23:15:25.503Z,29.43
2019-04-16T23:17:52.019Z,27.23
2019-04-16T23:20:29.291Z,35.23
2019-04-16T23:22:47.651Z,48.37
2019-04-16T23:25:14.298Z,31.37
2019-04-16T23:27:40.846Z,32.80
2019-04-16T23:30:07.607Z,36.57
2019-04-16T23:32:34.196Z,29.53
2019-04-16T23:35:00.734Z,25.27
2019-04-16T23:37:27.241Z,32.83
2019-04-16T23:39:53.684Z,31.60
2019-04-16T23:42:20.156Z,26.20
2019-04-16T23:44:58.652Z,28.00
2019-04-16T23:47:27.588Z,26.60
2019-04-16T23:50:02.235Z,23.10
2019-04-16T23:52:31.929Z,27.80
2019-04-16T23:55:03.755Z,23.60
2019-04-16T23:57:44.319Z,23.57
